KSDM/SDM METAR and TAF weather

Enter ICAO airport designator
Station Type Date Time Source
KSDM METAR 2019/02/21 16:05 UTC NOAA

KSDM 211605Z 25009KT 10SM BKN060 BKN070 BKN100 09/06 A2969 RMK MG WX CURRENCY FEB


Station Type Date Time Source
KSDM Decoded METAR 2019/02/21 16:05 UTC NOAA

San Diego, Brown Field Municipal Airport, CA, United States (KSDM) 32-34-31N 116-59-35W 159M
Feb 21, 2019 - 11:05 AM EST / 2019.02.21 1605 UTC
Wind: from the WSW (250 degrees) at 10 MPH (9 KT):0
Visibility: 10 mile(s):0
Sky conditions: mostly cloudy
Temperature: 48 F (9 C)
Dew Point: 42 F (6 C)
Relative Humidity: 81%
Pressure (altimeter): 29.69 in. Hg (1005 hPa)
ob: KSDM 211605Z 25009KT 10SM BKN060 BKN070 BKN100 09/06 A2969 RMK MG WX CURRENCY FEB
cycle: 16

Station Type Date Time Source
KSDM TAF UTC NOAA

Error!


Example: see airport list